Time;durP1;ratioP1;P1;durP2;ratioP2;P2;SDS_P1;SDS_P2;PMS_P1;PMS_P2;Temp;Humidity;BMP_temperature;BMP_pressure;BME280_temperature;BME280_humidity;BME280_pressure;Samples;Min_cycle;Max_cycle;Signal;HPM_P1;HPM_P2
2022/12/31 00:02:07;;;;;;;4.13;3.20;;;13.50;98.90;;;;;;5030503;28;20061;-67
2022/12/31 00:04:33;;;;;;;4.72;2.50;;;13.50;99.00;;;;;;5033597;28;20056;-67
2022/12/31 00:06:58;;;;;;;2.35;2.15;;;13.50;99.10;;;;;;5033271;28;20036;-67
2022/12/31 00:09:24;;;;;;;3.67;3.25;;;13.60;99.10;;;;;;5026560;28;20091;-67
2022/12/31 00:11:49;;;;;;;2.97;2.30;;;13.60;99.20;;;;;;5033414;28;20167;-67
2022/12/31 00:14:15;;;;;;;2.63;2.10;;;13.60;99.30;;;;;;5030079;28;20488;-66
2022/12/31 00:16:41;;;;;;;2.55;2.10;;;13.60;99.30;;;;;;5031570;28;20029;-67
2022/12/31 00:19:11;;;;;;;2.50;2.00;;;13.70;99.30;;;;;;5030568;28;20112;-65
2022/12/31 00:21:38;;;;;;;2.65;1.70;;;13.70;99.30;;;;;;5025220;28;20029;-66
2022/12/31 00:24:04;;;;;;;1.90;1.67;;;13.70;99.30;;;;;;5027101;28;20508;-67
2022/12/31 00:26:33;;;;;;;2.70;1.38;;;13.70;99.40;;;;;;5024819;28;20040;-66
2022/12/31 00:28:59;;;;;;;1.58;1.10;;;13.70;99.30;;;;;;5027943;28;20059;-66
2022/12/31 00:31:31;;;;;;;0.95;0.95;;;13.60;99.30;;;;;;5025311;28;20407;-66
2022/12/31 00:33:58;;;;;;;1.00;1.00;;;13.60;99.40;;;;;;5024726;28;20144;-66
2022/12/31 00:36:29;;;;;;;1.85;0.90;;;13.60;99.40;;;;;;5023448;28;20029;-66
2022/12/31 00:38:56;;;;;;;0.97;0.83;;;13.50;99.50;;;;;;5025126;28;20040;-66
2022/12/31 00:41:23;;;;;;;0.70;0.70;;;13.50;99.50;;;;;;5029877;28;20286;-66
2022/12/31 00:43:49;;;;;;;0.90;0.90;;;13.50;99.50;;;;;;5030225;28;20014;-66
2022/12/31 00:46:16;;;;;;;1.10;1.00;;;13.60;99.50;;;;;;5030191;28;20050;-66
2022/12/31 00:48:42;;;;;;;1.00;1.00;;;13.60;99.40;;;;;;5023289;28;20044;-66
2022/12/31 00:51:10;;;;;;;0.82;0.82;;;13.50;99.40;;;;;;5026849;28;20506;-65
2022/12/31 00:53:37;;;;;;;1.60;0.98;;;13.50;99.40;;;;;;5030785;28;20032;-65
2022/12/31 00:56:10;;;;;;;1.27;0.90;;;13.50;99.40;;;;;;5027531;28;20032;-67
2022/12/31 00:58:36;;;;;;;0.98;0.90;;;13.50;99.40;;;;;;5030042;28;20025;-65
2022/12/31 01:01:22;;;;;;;1.00;0.90;;;13.50;99.40;;;;;;5028990;28;20105;-65
2022/12/31 01:03:51;;;;;;;1.52;0.90;;;13.40;99.50;;;;;;5032429;28;20488;-66
2022/12/31 01:06:17;;;;;;;1.30;1.00;;;13.40;99.40;;;;;;5030573;28;20124;-65
2022/12/31 01:08:43;;;;;;;1.10;1.10;;;13.40;99.40;;;;;;5032862;28;20399;-67
2022/12/31 01:11:23;;;;;;;1.30;1.20;;;13.40;99.40;;;;;;5032034;28;21278;-66
2022/12/31 01:13:53;;;;;;;1.52;1.40;;;13.40;99.40;;;;;;5026573;28;20047;-66
2022/12/31 01:16:28;;;;;;;1.30;1.20;;;13.40;99.30;;;;;;5032166;28;20033;-66
2022/12/31 01:18:54;;;;;;;1.40;1.25;;;13.40;99.40;;;;;;5031126;28;20033;-67
2022/12/31 01:21:20;;;;;;;1.58;1.40;;;13.40;99.30;;;;;;5031152;28;20032;-66
2022/12/31 01:23:46;;;;;;;1.40;1.30;;;13.40;99.30;;;;;;5030382;28;20021;-66
2022/12/31 01:26:14;;;;;;;2.95;1.60;;;13.40;99.30;;;;;;5030637;28;20033;-66
2022/12/31 01:28:40;;;;;;;1.80;1.40;;;13.40;99.30;;;;;;5034258;28;20045;-66
2022/12/31 01:31:12;;;;;;;1.67;1.58;;;13.40;99.30;;;;;;5032351;28;20087;-66
2022/12/31 01:33:38;;;;;;;1.85;1.60;;;13.40;99.20;;;;;;5029694;28;20033;-65
2022/12/31 01:36:15;;;;;;;2.00;1.73;;;13.40;99.20;;;;;;5034789;28;20108;-66
2022/12/31 01:38:41;;;;;;;1.83;1.73;;;13.40;99.10;;;;;;5023312;28;20057;-66
2022/12/31 01:41:11;;;;;;;1.75;1.65;;;13.40;99.10;;;;;;5031017;28;20030;-66
2022/12/31 01:44:01;;;;;;;1.60;1.48;;;13.30;99.10;;;;;;5029772;28;20032;-65
2022/12/31 01:46:43;;;;;;;1.70;1.60;;;13.40;99.00;;;;;;5026794;28;20030;-66
2022/12/31 01:49:30;;;;;;;1.63;1.52;;;13.40;98.90;;;;;;5028008;28;20037;-66
2022/12/31 01:52:14;;;;;;;1.90;1.70;;;13.40;98.90;;;;;;5030091;28;20108;-66
2022/12/31 01:54:51;;;;;;;2.15;1.70;;;13.40;98.90;;;;;;5035508;28;20039;-67
2022/12/31 01:57:17;;;;;;;1.60;1.50;;;13.40;98.80;;;;;;5030893;28;20092;-66
2022/12/31 01:59:44;;;;;;;2.05;1.85;;;13.40;98.80;;;;;;5031313;28;20048;-66
2022/12/31 02:02:11;;;;;;;2.60;1.70;;;13.40;98.80;;;;;;5029622;28;20025;-65
2022/12/31 02:04:37;;;;;;;2.13;1.60;;;13.40;98.70;;;;;;5031063;28;20451;-66
2022/12/31 02:07:05;;;;;;;2.70;1.63;;;13.40;98.70;;;;;;5031447;28;20158;-66
2022/12/31 02:09:32;;;;;;;1.90;1.55;;;13.40;98.60;;;;;;5032197;28;20028;-66
2022/12/31 02:11:58;;;;;;;1.75;1.60;;;13.40;98.70;;;;;;5028627;28;20033;-65
2022/12/31 02:14:23;;;;;;;1.85;1.65;;;13.40;98.60;;;;;;5033756;28;20029;-65
2022/12/31 02:16:58;;;;;;;2.05;1.60;;;13.40;98.60;;;;;;5030952;28;20041;-65
2022/12/31 02:19:43;;;;;;;2.55;1.50;;;13.40;98.50;;;;;;5032265;28;20024;-65
2022/12/31 02:22:38;;;;;;;2.75;1.50;;;13.40;98.50;;;;;;5028120;28;20025;-65
2022/12/31 02:25:22;;;;;;;2.17;1.60;;;13.40;98.40;;;;;;5024672;28;20029;-65
2022/12/31 02:28:05;;;;;;;2.60;1.30;;;13.40;98.40;;;;;;5020414;28;20104;-66
2022/12/31 02:30:32;;;;;;;2.97;1.40;;;13.30;98.50;;;;;;5029921;28;20021;-66
2022/12/31 02:33:06;;;;;;;1.60;1.42;;;13.30;98.50;;;;;;5029236;28;20075;-66
2022/12/31 02:35:54;;;;;;;2.78;1.90;;;13.30;98.50;;;;;;5030388;28;20108;-67
2022/12/31 02:38:37;;;;;;;2.47;1.60;;;13.30;98.50;;;;;;5028561;28;20025;-66
2022/12/31 02:41:02;;;;;;;2.05;1.52;;;13.30;98.50;;;;;;5029774;28;20487;-66
2022/12/31 02:43:28;;;;;;;2.05;1.70;;;13.30;98.50;;;;;;5030507;28;20028;-67
2022/12/31 02:46:22;;;;;;;2.67;2.20;;;13.30;98.50;;;;;;5029825;28;20121;-67
2022/12/31 02:49:09;;;;;;;3.15;2.00;;;13.30;98.50;;;;;;5027972;28;20037;-67
2022/12/31 02:51:55;;;;;;;2.13;1.67;;;13.30;98.50;;;;;;5027989;28;20495;-67
2022/12/31 02:54:27;;;;;;;2.80;1.75;;;13.30;98.50;;;;;;5028509;28;20030;-67
2022/12/31 02:56:58;;;;;;;2.05;1.73;;;13.30;98.40;;;;;;5029271;28;20026;-67
2022/12/31 03:02:23;;;;;;;2.65;2.22;;;13.30;98.40;;;;;;5026618;28;20781;-67
2022/12/31 03:04:55;;;;;;;2.88;2.30;;;13.20;98.40;;;;;;5028786;28;20104;-67
2022/12/31 03:07:23;;;;;;;2.10;1.90;;;13.20;98.40;;;;;;5028616;28;20112;-67
2022/12/31 03:09:50;;;;;;;3.17;2.20;;;13.20;98.40;;;;;;5028410;28;20049;-66
2022/12/31 03:15:05;;;;;;;2.58;1.70;;;13.20;98.50;;;;;;5029016;28;20408;-67
2022/12/31 03:17:33;;;;;;;2.53;1.70;;;13.20;98.50;;;;;;5028815;28;20045;-66
2022/12/31 03:22:43;;;;;;;1.48;1.30;;;13.20;98.40;;;;;;5023627;28;20113;-64
2022/12/31 03:27:58;;;;;;;2.20;1.80;;;13.20;98.30;;;;;;5028716;28;20067;-65
2022/12/31 03:30:24;;;;;;;2.22;1.40;;;13.10;98.30;;;;;;5028536;28;20087;-66
2022/12/31 03:32:50;;;;;;;2.45;1.50;;;13.20;98.30;;;;;;5028648;28;20033;-66
2022/12/31 03:35:20;;;;;;;1.60;1.40;;;13.10;98.30;;;;;;5032513;28;20141;-66
2022/12/31 03:37:47;;;;;;;2.70;1.70;;;13.10;98.40;;;;;;5027704;28;20487;-65
2022/12/31 03:40:14;;;;;;;1.70;1.60;;;13.10;98.40;;;;;;5024090;28;20033;-66
2022/12/31 03:42:40;;;;;;;2.00;1.55;;;13.10;98.30;;;;;;5032970;28;20108;-66
2022/12/31 03:45:07;;;;;;;3.78;1.60;;;13.00;98.30;;;;;;5029979;28;20093;-65
2022/12/31 03:47:32;;;;;;;2.55;1.60;;;13.00;98.30;;;;;;5029277;28;20032;-64
2022/12/31 03:49:58;;;;;;;3.83;2.15;;;13.00;98.30;;;;;;5030716;28;20025;-65
2022/12/31 03:52:23;;;;;;;2.13;1.67;;;13.00;98.30;;;;;;5029438;28;20415;-66
2022/12/31 03:54:49;;;;;;;2.88;2.30;;;13.00;98.30;;;;;;5037459;28;20493;-66
2022/12/31 03:57:15;;;;;;;3.58;2.40;;;12.90;98.20;;;;;;5030176;28;20025;-65
2022/12/31 03:59:40;;;;;;;2.85;2.50;;;12.90;98.30;;;;;;5029527;28;20477;-65
2022/12/31 04:02:06;;;;;;;3.30;2.40;;;12.90;98.30;;;;;;5028103;28;20029;-65
2022/12/31 04:04:31;;;;;;;4.57;2.60;;;12.90;98.30;;;;;;5031885;28;20043;-66
2022/12/31 04:06:57;;;;;;;2.53;2.30;;;12.90;98.30;;;;;;5039014;28;20044;-66
2022/12/31 04:09:23;;;;;;;3.08;2.55;;;12.90;98.40;;;;;;5032315;28;20034;-66
2022/12/31 04:11:48;;;;;;;2.83;2.45;;;12.90;98.40;;;;;;5028464;28;20036;-66
2022/12/31 04:14:16;;;;;;;2.95;2.50;;;12.90;98.40;;;;;;5028569;28;20676;-66
2022/12/31 04:16:42;;;;;;;3.08;2.50;;;12.90;98.50;;;;;;5027986;28;20041;-66
2022/12/31 04:19:08;;;;;;;3.65;3.17;;;13.00;98.50;;;;;;5028702;28;20387;-66
2022/12/31 04:21:33;;;;;;;2.88;2.55;;;12.90;98.40;;;;;;5019004;28;20033;-66
2022/12/31 04:24:00;;;;;;;3.67;3.20;;;12.90;98.40;;;;;;5025939;28;20026;-66
2022/12/31 04:26:26;;;;;;;4.35;3.60;;;12.90;98.50;;;;;;5027259;28;20435;-66
2022/12/31 04:28:51;;;;;;;2.72;2.53;;;12.90;98.50;;;;;;5027755;28;20053;-66
2022/12/31 04:31:17;;;;;;;2.90;2.60;;;12.80;98.60;;;;;;5028667;28;20087;-65
2022/12/31 04:33:43;;;;;;;2.97;2.67;;;12.90;98.70;;;;;;5028296;28;20026;-65
2022/12/31 04:36:08;;;;;;;4.68;3.85;;;12.90;98.70;;;;;;5026512;28;20038;-64
2022/12/31 04:38:34;;;;;;;5.60;2.65;;;12.90;98.60;;;;;;5027493;28;20555;-66
2022/12/31 04:41:19;;;;;;;4.18;3.75;;;12.90;98.70;;;;;;5027635;28;20057;-66
2022/12/31 04:43:47;;;;;;;3.63;2.90;;;12.90;98.60;;;;;;5027889;28;20440;-66
2022/12/31 04:46:14;;;;;;;3.60;3.30;;;12.90;98.70;;;;;;5028086;28;20079;-66
2022/12/31 04:48:40;;;;;;;3.30;2.90;;;12.90;98.70;;;;;;5029926;28;20052;-66
2022/12/31 04:51:05;;;;;;;3.92;3.15;;;12.90;98.80;;;;;;5031642;28;20033;-67
2022/12/31 04:53:31;;;;;;;3.13;2.83;;;12.90;98.70;;;;;;5031888;28;20100;-66
2022/12/31 04:55:57;;;;;;;9.93;3.88;;;12.90;98.70;;;;;;5030614;28;20172;-66
2022/12/31 04:58:22;;;;;;;4.65;3.70;;;12.90;98.70;;;;;;5031360;28;20840;-66
2022/12/31 05:00:50;;;;;;;5.57;4.35;;;12.90;98.70;;;;;;5031123;28;20025;-65
2022/12/31 05:03:16;;;;;;;3.25;2.95;;;12.90;98.80;;;;;;5031577;28;20017;-66
2022/12/31 05:05:43;;;;;;;3.72;3.42;;;12.80;99.00;;;;;;5035549;28;20092;-66
2022/12/31 05:08:09;;;;;;;3.17;2.88;;;12.90;99.00;;;;;;5034185;28;20044;-66
2022/12/31 05:10:36;;;;;;;4.43;4.03;;;12.90;99.10;;;;;;5030769;28;20065;-66
2022/12/31 05:13:01;;;;;;;3.60;3.30;;;12.90;99.10;;;;;;5036206;28;20565;-66
2022/12/31 05:15:27;;;;;;;2.78;2.58;;;12.90;99.10;;;;;;5031705;28;20129;-66
2022/12/31 05:17:52;;;;;;;2.88;2.67;;;12.90;99.10;;;;;;5031103;28;20045;-66
2022/12/31 05:20:18;;;;;;;2.70;2.50;;;12.90;99.10;;;;;;5030769;28;20115;-66
2022/12/31 05:22:43;;;;;;;6.10;2.97;;;12.90;99.20;;;;;;5031111;28;20036;-66
2022/12/31 05:25:09;;;;;;;2.60;2.40;;;12.90;99.20;;;;;;5030410;28;20100;-65
2022/12/31 05:27:36;;;;;;;5.07;3.50;;;12.90;99.30;;;;;;5029049;28;20033;-66
2022/12/31 05:30:06;;;;;;;2.40;2.20;;;13.00;99.30;;;;;;5027710;28;20483;-65
2022/12/31 05:32:31;;;;;;;2.30;2.10;;;12.90;99.40;;;;;;5029308;28;20029;-66
2022/12/31 05:34:58;;;;;;;2.35;2.15;;;13.00;99.50;;;;;;5030807;28;20623;-66
2022/12/31 05:37:24;;;;;;;2.53;2.33;;;13.00;99.50;;;;;;5029884;28;20395;-66
2022/12/31 05:39:50;;;;;;;2.20;2.00;;;13.00;99.50;;;;;;5028961;28;20056;-66
2022/12/31 05:42:16;;;;;;;1.55;1.45;;;13.00;99.60;;;;;;5028804;28;20483;-66
2022/12/31 05:44:41;;;;;;;1.98;1.80;;;13.00;99.70;;;;;;5030569;28;20024;-66
2022/12/31 05:47:07;;;;;;;2.10;1.90;;;13.00;99.70;;;;;;5026811;28;20028;-66
2022/12/31 05:49:32;;;;;;;2.00;1.90;;;13.10;99.90;;;;;;5033216;28;20032;-66
2022/12/31 05:51:58;;;;;;;1.55;1.45;;;13.10;99.70;;;;;;5032619;28;20113;-66
2022/12/31 05:54:24;;;;;;;1.50;1.40;;;13.10;99.90;;;;;;5030502;28;20601;-66
2022/12/31 05:56:49;;;;;;;1.55;1.45;;;13.10;99.70;;;;;;5025556;28;20384;-66
2022/12/31 05:59:15;;;;;;;1.40;1.30;;;13.10;99.70;;;;;;5047491;28;20048;-66
2022/12/31 06:01:40;;;;;;;1.48;1.38;;;13.10;99.80;;;;;;5043395;28;20038;-66
2022/12/31 06:04:06;;;;;;;1.35;1.25;;;13.10;99.80;;;;;;5031702;28;20500;-67
2022/12/31 06:06:31;;;;;;;1.52;1.42;;;13.20;99.80;;;;;;5031794;28;20115;-66
2022/12/31 06:08:57;;;;;;;1.50;1.40;;;13.20;99.80;;;;;;5036468;28;20040;-66
2022/12/31 06:11:23;;;;;;;1.50;1.40;;;13.20;99.80;;;;;;5029850;28;20412;-66
2022/12/31 06:13:48;;;;;;;1.00;1.00;;;13.10;99.90;;;;;;5036397;28;20554;-66
2022/12/31 06:16:14;;;;;;;1.40;1.30;;;13.20;99.90;;;;;;5031211;28;20041;-66
2022/12/31 06:18:40;;;;;;;1.25;1.15;;;13.10;99.90;;;;;;5031361;28;20025;-66
2022/12/31 06:21:05;;;;;;;1.27;1.20;;;13.20;99.90;;;;;;5029848;28;20080;-67
2022/12/31 06:23:31;;;;;;;1.55;1.45;;;13.20;99.90;;;;;;5027412;28;20018;-67
2022/12/31 06:26:01;;;;;;;1.40;1.30;;;13.20;99.80;;;;;;5029371;28;20037;-66
2022/12/31 06:28:26;;;;;;;1.58;1.10;;;13.20;99.80;;;;;;5027068;28;20029;-67
2022/12/31 06:30:59;;;;;;;1.73;1.23;;;13.30;99.90;;;;;;5029953;28;20034;-67
2022/12/31 06:33:24;;;;;;;1.13;1.13;;;13.30;99.80;;;;;;5026650;28;20511;-66
2022/12/31 06:35:58;;;;;;;1.83;1.73;;;13.30;99.80;;;;;;5027941;28;20044;-66
2022/12/31 06:38:25;;;;;;;1.98;1.80;;;13.30;99.80;;;;;;5029703;28;20025;-66
2022/12/31 06:40:51;;;;;;;1.65;1.55;;;13.30;99.90;;;;;;5028977;28;20484;-66
2022/12/31 06:43:16;;;;;;;1.30;1.30;;;13.30;99.90;;;;;;5027629;28;20042;-66
2022/12/31 06:45:42;;;;;;;1.50;1.40;;;13.30;99.90;;;;;;5029304;28;20037;-66
2022/12/31 06:48:07;;;;;;;1.40;1.30;;;13.30;99.90;;;;;;5029720;28;20508;-66
2022/12/31 06:50:33;;;;;;;1.42;1.33;;;13.40;99.90;;;;;;5029685;28;20041;-66
2022/12/31 06:52:59;;;;;;;1.20;1.10;;;13.40;99.90;;;;;;5027503;28;20084;-66
2022/12/31 06:55:25;;;;;;;1.13;1.13;;;13.40;99.90;;;;;;5029486;28;20087;-66
2022/12/31 06:57:51;;;;;;;1.00;1.00;;;13.50;99.90;;;;;;5029012;28;20623;-67
2022/12/31 07:00:17;;;;;;;1.50;1.27;;;13.50;99.90;;;;;;5028699;28;20030;-66
2022/12/31 07:02:48;;;;;;;1.20;1.10;;;13.60;99.90;;;;;;5023815;28;20017;-66
2022/12/31 07:05:45;;;;;;;1.53;1.43;;;13.60;99.90;;;;;;5026746;28;20025;-65
2022/12/31 07:08:32;;;;;;;1.20;1.10;;;13.70;99.90;;;;;;5023367;28;20080;-66
2022/12/31 07:11:21;;;;;;;2.13;1.10;;;13.80;99.90;;;;;;5028817;28;20029;-67
2022/12/31 07:13:59;;;;;;;1.00;0.90;;;13.80;99.90;;;;;;5027976;28;20034;-66
2022/12/31 07:16:34;;;;;;;1.25;1.10;;;13.90;99.90;;;;;;5029025;28;20385;-66
2022/12/31 07:19:18;;;;;;;1.65;1.23;;;13.90;99.90;;;;;;5029066;28;20491;-67
2022/12/31 07:21:44;;;;;;;1.50;1.10;;;14.00;99.90;;;;;;5027565;28;20716;-66
2022/12/31 07:24:11;;;;;;;1.15;1.15;;;14.10;99.90;;;;;;5025995;28;20021;-66
2022/12/31 07:27:00;;;;;;;1.30;1.20;;;14.10;99.90;;;;;;5025650;28;20413;-66
2022/12/31 07:29:48;;;;;;;2.63;1.60;;;14.10;99.90;;;;;;5020321;28;20956;-66
2022/12/31 07:32:33;;;;;;;2.20;2.00;;;14.20;99.90;;;;;;5023944;28;20091;-66
2022/12/31 07:35:07;;;;;;;1.48;1.38;;;14.20;99.90;;;;;;5020743;28;20030;-67
2022/12/31 07:38:01;;;;;;;2.40;1.73;;;14.20;99.90;;;;;;5009652;28;20439;-67
2022/12/31 07:40:50;;;;;;;1.42;1.33;;;14.20;99.90;;;;;;5016002;28;20112;-66
2022/12/31 07:43:31;;;;;;;1.50;1.40;;;14.20;99.90;;;;;;5019317;28;20025;-66
2022/12/31 07:46:27;;;;;;;1.35;1.25;;;14.20;99.90;;;;;;5027601;28;20440;-66
2022/12/31 07:48:53;;;;;;;3.30;1.40;;;14.30;99.90;;;;;;5013808;28;20496;-66
2022/12/31 07:51:19;;;;;;;1.30;1.20;;;14.30;99.90;;;;;;5016722;28;20101;-66
2022/12/31 07:53:44;;;;;;;1.15;1.05;;;14.30;99.90;;;;;;5018698;28;20121;-66
2022/12/31 07:56:10;;;;;;;2.45;1.70;;;14.30;99.90;;;;;;5009728;28;20026;-66
2022/12/31 07:58:38;;;;;;;1.45;1.35;;;14.30;99.90;;;;;;5023387;28;20035;-66
2022/12/31 08:01:08;;;;;;;1.92;1.45;;;14.30;99.90;;;;;;5022842;28;20247;-66
2022/12/31 08:04:01;;;;;;;1.30;1.20;;;14.30;99.90;;;;;;5028614;28;20053;-66
2022/12/31 08:06:53;;;;;;;2.60;1.20;;;14.30;99.90;;;;;;5035530;28;20130;-66
2022/12/31 08:09:33;;;;;;;4.15;1.30;;;14.40;99.90;;;;;;5041037;28;20061;-66
2022/12/31 08:12:00;;;;;;;4.03;1.48;;;14.40;99.90;;;;;;5028532;28;20037;-65
2022/12/31 08:14:28;;;;;;;1.42;1.10;;;14.40;99.90;;;;;;5027835;28;20563;-66
2022/12/31 08:16:54;;;;;;;1.95;0.93;;;14.40;99.90;;;;;;5026701;28;20045;-66
2022/12/31 08:19:27;;;;;;;0.80;0.80;;;14.40;99.90;;;;;;5027172;28;20546;-68
2022/12/31 08:22:15;;;;;;;1.48;0.70;;;14.40;99.90;;;;;;5028045;28;20024;-66
2022/12/31 08:25:02;;;;;;;1.33;0.70;;;14.30;99.90;;;;;;5028329;28;20029;-67
2022/12/31 08:28:01;;;;;;;0.80;0.80;;;14.40;99.90;;;;;;5031019;28;20026;-67
2022/12/31 08:30:46;;;;;;;0.90;0.90;;;14.30;99.90;;;;;;5032245;28;20057;-66
2022/12/31 08:33:15;;;;;;;0.95;0.80;;;14.30;99.90;;;;;;5033100;28;20021;-67
2022/12/31 08:36:11;;;;;;;0.93;0.70;;;14.20;99.90;;;;;;5029885;28;20052;-67
2022/12/31 08:38:49;;;;;;;0.90;0.80;;;14.20;99.90;;;;;;5021803;28;20066;-67
2022/12/31 08:41:34;;;;;;;1.75;0.80;;;14.20;99.90;;;;;;5026337;28;20029;-67
2022/12/31 08:44:24;;;;;;;1.05;0.70;;;14.20;99.90;;;;;;5032139;28;20017;-67
2022/12/31 08:47:12;;;;;;;1.25;0.85;;;14.20;99.90;;;;;;5030906;28;20542;-67
2022/12/31 08:49:37;;;;;;;1.45;1.10;;;14.10;99.90;;;;;;5035698;28;20094;-67
2022/12/31 08:52:10;;;;;;;1.27;1.00;;;14.10;99.90;;;;;;5025460;28;20026;-68
2022/12/31 08:54:36;;;;;;;1.42;0.90;;;14.10;99.90;;;;;;5032112;28;20022;-67
2022/12/31 08:57:25;;;;;;;1.48;0.70;;;14.10;99.90;;;;;;5026293;28;20087;-67
2022/12/31 09:00:12;;;;;;;1.25;0.90;;;14.10;99.90;;;;;;5038075;28;20499;-67
2022/12/31 09:03:08;;;;;;;0.63;0.63;;;14.20;99.90;;;;;;5042224;28;20041;-67
2022/12/31 09:06:02;;;;;;;1.05;0.90;;;14.10;99.90;;;;;;5033537;28;20037;-67
2022/12/31 09:08:50;;;;;;;2.05;1.10;;;14.10;99.90;;;;;;5021918;28;20030;-67
2022/12/31 09:11:42;;;;;;;1.08;0.70;;;14.10;99.90;;;;;;5028836;28;20053;-67
2022/12/31 09:14:33;;;;;;;1.10;0.98;;;14.10;99.90;;;;;;5023014;28;20100;-67
2022/12/31 09:17:31;;;;;;;1.10;1.00;;;14.20;99.90;;;;;;5031622;28;20377;-68
2022/12/31 09:19:57;;;;;;;1.13;0.98;;;14.20;99.90;;;;;;5025107;28;20042;-67
2022/12/31 09:22:23;;;;;;;2.35;1.48;;;14.20;99.90;;;;;;5031314;28;20121;-67
2022/12/31 09:24:48;;;;;;;2.65;1.58;;;14.20;99.90;;;;;;5024911;28;20034;-67
2022/12/31 09:27:17;;;;;;;3.55;2.20;;;14.30;99.90;;;;;;5030324;28;20064;-67
2022/12/31 09:30:06;;;;;;;4.68;2.88;;;14.30;99.90;;;;;;5031324;28;20026;-67
2022/12/31 09:32:51;;;;;;;4.88;2.92;;;14.30;99.90;;;;;;5031317;28;20104;-67
2022/12/31 09:35:52;;;;;;;4.78;2.47;;;14.30;99.90;;;;;;5029822;28;20017;-67
2022/12/31 09:38:36;;;;;;;3.65;2.35;;;14.30;99.90;;;;;;5031321;28;20030;-68
2022/12/31 09:41:32;;;;;;;5.45;3.60;;;14.40;99.90;;;;;;5033564;28;20625;-67
2022/12/31 09:44:18;;;;;;;4.45;2.67;;;14.40;99.90;;;;;;5033037;28;20043;-68
2022/12/31 09:47:01;;;;;;;3.97;2.30;;;14.40;99.90;;;;;;5039298;28;20086;-67
2022/12/31 09:49:54;;;;;;;3.28;1.90;;;14.50;99.90;;;;;;5036156;28;20440;-67
2022/12/31 09:52:43;;;;;;;2.33;1.67;;;14.50;99.90;;;;;;5029238;28;20116;-68
2022/12/31 09:55:11;;;;;;;2.30;1.60;;;14.50;99.80;;;;;;5031561;28;20024;-67
2022/12/31 09:58:02;;;;;;;3.70;1.50;;;14.60;99.80;;;;;;5030304;28;20025;-67
2022/12/31 10:01:10;;;;;;;3.17;2.15;;;14.60;99.70;;;;;;5027800;28;20048;-67
2022/12/31 10:03:42;;;;;;;2.78;1.80;;;14.70;99.60;;;;;;5026968;28;20037;-67
2022/12/31 10:06:18;;;;;;;2.70;1.48;;;14.70;99.60;;;;;;5028586;28;20026;-67
2022/12/31 10:09:08;;;;;;;1.70;1.42;;;14.70;99.60;;;;;;5028550;28;20021;-67
2022/12/31 10:11:56;;;;;;;2.40;1.48;;;14.80;99.60;;;;;;5029913;28;20032;-67
2022/12/31 10:14:40;;;;;;;2.67;1.40;;;14.80;99.60;;;;;;5028614;28;20088;-66
2022/12/31 10:17:26;;;;;;;3.50;1.70;;;14.90;99.60;;;;;;5029553;28;20025;-65
2022/12/31 10:20:25;;;;;;;4.78;2.40;;;15.00;99.60;;;;;;5029785;28;20026;-66
2022/12/31 10:23:00;;;;;;;5.18;2.03;;;15.00;99.50;;;;;;5029335;28;20104;-67
2022/12/31 10:25:39;;;;;;;2.60;1.30;;;15.10;99.40;;;;;;5028114;28;20079;-66
2022/12/31 10:28:21;;;;;;;2.42;1.08;;;15.10;99.40;;;;;;5029594;28;20036;-66
2022/12/31 10:31:06;;;;;;;3.20;1.30;;;15.20;99.30;;;;;;5027571;28;20084;-66
2022/12/31 10:33:45;;;;;;;3.03;1.40;;;15.20;99.20;;;;;;5028413;28;20030;-66
2022/12/31 10:36:29;;;;;;;3.20;1.38;;;15.30;99.10;;;;;;5027190;28;20026;-66
2022/12/31 10:39:17;;;;;;;1.50;1.10;;;15.30;99.00;;;;;;5026725;28;20041;-66
2022/12/31 10:42:20;;;;;;;3.20;1.35;;;15.40;99.00;;;;;;5027364;28;20021;-66
2022/12/31 10:44:46;;;;;;;2.33;1.20;;;15.40;98.90;;;;;;5027797;28;20053;-65
2022/12/31 10:47:14;;;;;;;2.85;1.40;;;15.50;98.80;;;;;;5028744;28;20068;-66
2022/12/31 10:50:03;;;;;;;4.75;1.67;;;15.40;98.70;;;;;;5027195;28;20472;-66
2022/12/31 10:52:28;;;;;;;4.30;1.55;;;15.50;98.60;;;;;;5029276;28;20108;-65
2022/12/31 10:55:31;;;;;;;3.33;1.40;;;15.50;98.50;;;;;;5029664;28;20121;-66
2022/12/31 10:58:06;;;;;;;3.65;2.20;;;15.50;98.50;;;;;;5028992;28;20044;-66
2022/12/31 11:01:15;;;;;;;3.25;1.55;;;15.50;98.40;;;;;;5028517;28;20033;-66
2022/12/31 11:04:01;;;;;;;6.13;2.40;;;15.60;98.40;;;;;;4988718;28;20026;-67
2022/12/31 11:06:55;;;;;;;7.40;2.33;;;15.60;98.30;;;;;;5027514;28;20037;-67
2022/12/31 11:09:58;;;;;;;5.97;2.30;;;15.60;98.30;;;;;;5026459;28;20096;-67
2022/12/31 11:12:41;;;;;;;7.53;2.10;;;15.60;98.20;;;;;;5028878;28;20029;-67
2022/12/31 11:15:21;;;;;;;3.20;1.63;;;15.60;98.20;;;;;;5029328;28;20484;-66
2022/12/31 11:18:19;;;;;;;4.90;1.92;;;15.70;98.10;;;;;;5028635;28;20065;-67
2022/12/31 11:20:54;;;;;;;3.13;1.55;;;15.60;98.00;;;;;;5024722;28;20049;-67
2022/12/31 11:23:51;;;;;;;3.22;1.30;;;15.60;98.00;;;;;;5030931;28;20032;-67
2022/12/31 11:26:45;;;;;;;2.92;1.42;;;15.60;98.00;;;;;;5029295;28;20079;-67
2022/12/31 11:29:37;;;;;;;2.92;1.90;;;15.60;98.00;;;;;;5030006;28;20484;-67
2022/12/31 11:32:29;;;;;;;8.32;1.90;;;15.60;98.00;;;;;;5031638;28;20080;-66
2022/12/31 11:35:42;;;;;;;4.80;1.92;;;15.60;97.90;;;;;;5027746;28;20069;-66
2022/12/31 11:38:28;;;;;;;5.90;1.88;;;15.60;98.00;;;;;;5009223;28;20042;-66
2022/12/31 11:41:06;;;;;;;5.88;1.85;;;15.70;97.90;;;;;;5027825;28;20555;-66
2022/12/31 11:43:45;;;;;;;3.50;2.05;;;15.70;97.90;;;;;;5024995;28;20032;-66
2022/12/31 11:46:25;;;;;;;4.07;1.70;;;15.70;97.80;;;;;;5027037;28;20105;-66
2022/12/31 11:49:09;;;;;;;4.45;2.15;;;15.70;97.70;;;;;;5024752;28;20103;-66
2022/12/31 11:51:38;;;;;;;5.07;2.17;;;15.80;97.60;;;;;;5021324;28;20075;-66
2022/12/31 11:54:25;;;;;;;5.32;2.10;;;15.80;97.40;;;;;;5021834;28;20116;-66
2022/12/31 11:57:00;;;;;;;6.30;2.08;;;15.80;97.30;;;;;;5023705;28;20026;-66
2022/12/31 11:59:26;;;;;;;4.28;1.92;;;15.90;97.20;;;;;;5029137;28;20030;-66
2022/12/31 12:02:14;;;;;;;5.78;1.80;;;15.90;96.80;;;;;;5029944;28;20029;-66
2022/12/31 12:04:40;;;;;;;4.38;1.88;;;16.00;96.50;;;;;;5032046;28;20021;-67
2022/12/31 12:07:13;;;;;;;5.47;2.03;;;16.00;96.30;;;;;;5028161;28;20045;-67
2022/12/31 12:09:39;;;;;;;5.63;2.03;;;16.00;96.10;;;;;;5031842;28;20065;-66
2022/12/31 12:12:05;;;;;;;6.43;2.03;;;16.00;96.00;;;;;;5029161;28;20033;-67
2022/12/31 12:14:34;;;;;;;4.25;1.60;;;16.00;95.70;;;;;;5027879;28;20519;-66
2022/12/31 12:17:00;;;;;;;5.68;1.55;;;16.00;95.40;;;;;;5030420;28;20060;-68
2022/12/31 12:19:30;;;;;;;5.18;1.55;;;16.10;95.10;;;;;;5030809;28;20053;-66
2022/12/31 12:21:57;;;;;;;4.13;1.73;;;16.10;94.80;;;;;;5031844;28;20040;-66
2022/12/31 12:24:29;;;;;;;4.88;1.98;;;16.20;94.60;;;;;;5029895;28;20467;-66
2022/12/31 12:26:56;;;;;;;3.38;1.40;;;16.20;94.20;;;;;;5030104;28;20080;-66
2022/12/31 12:29:33;;;;;;;6.05;2.75;;;16.20;93.90;;;;;;5027417;28;20033;-66
2022/12/31 12:32:00;;;;;;;3.25;1.60;;;16.20;93.80;;;;;;5029572;28;20108;-67
2022/12/31 12:34:31;;;;;;;5.40;2.00;;;16.20;93.70;;;;;;5030188;28;20028;-66
2022/12/31 12:36:57;;;;;;;3.67;1.60;;;16.20;93.80;;;;;;5025986;28;20091;-70
2022/12/31 12:39:30;;;;;;;4.05;1.80;;;16.10;93.80;;;;;;5025476;28;20034;-66
2022/12/31 12:42:09;;;;;;;3.50;1.67;;;16.10;94.00;;;;;;5023047;28;20029;-68
2022/12/31 12:44:35;;;;;;;3.08;1.40;;;16.00;94.10;;;;;;5028870;28;20025;-66
2022/12/31 12:47:03;;;;;;;7.18;2.40;;;16.00;94.30;;;;;;5030079;28;20570;-68
2022/12/31 12:49:42;;;;;;;4.90;1.50;;;16.00;94.50;;;;;;5030617;28;20113;-67
2022/12/31 12:52:20;;;;;;;4.97;1.75;;;16.00;94.60;;;;;;5029857;28;20481;-67
2022/12/31 12:54:55;;;;;;;5.35;1.90;;;15.90;94.70;;;;;;5029921;28;20061;-67
2022/12/31 12:57:46;;;;;;;4.75;1.90;;;15.90;94.70;;;;;;5042081;28;20059;-67
2022/12/31 13:00:20;;;;;;;6.22;1.80;;;15.90;94.80;;;;;;5029175;28;20068;-67
2022/12/31 13:03:20;;;;;;;4.97;2.28;;;15.90;94.80;;;;;;5033696;28;20025;-67
2022/12/31 13:06:16;;;;;;;5.90;2.10;;;15.80;94.70;;;;;;5031116;28;20021;-67
2022/12/31 13:08:59;;;;;;;4.90;2.20;;;15.90;94.80;;;;;;5030453;28;20087;-67
2022/12/31 13:11:46;;;;;;;3.88;1.80;;;15.90;94.70;;;;;;5027361;28;20033;-67
2022/12/31 13:14:43;;;;;;;6.28;2.25;;;15.90;94.60;;;;;;5029064;28;20041;-67
2022/12/31 13:17:17;;;;;;;4.40;1.98;;;15.90;94.50;;;;;;5028898;28;20030;-67
2022/12/31 13:19:57;;;;;;;4.03;1.98;;;15.90;94.50;;;;;;5030612;28;20057;-67
2022/12/31 13:22:36;;;;;;;7.57;2.88;;;15.90;94.40;;;;;;5028558;28;20517;-67
2022/12/31 13:25:21;;;;;;;6.03;3.30;;;15.90;94.30;;;;;;5025401;28;20108;-67
2022/12/31 13:27:49;;;;;;;6.50;2.70;;;15.90;94.20;;;;;;5027250;28;20072;-68
2022/12/31 13:30:22;;;;;;;5.07;2.40;;;15.90;94.00;;;;;;5030461;28;20037;-67
2022/12/31 13:33:26;;;;;;;5.50;2.50;;;16.00;94.00;;;;;;5027588;28;20053;-67
2022/12/31 13:36:01;;;;;;;6.07;2.97;;;16.00;93.90;;;;;;5027251;28;20045;-67
2022/12/31 13:38:33;;;;;;;4.72;2.10;;;16.00;93.90;;;;;;5026875;28;20148;-67